sensor_id;sensor_type;location;lat;lon;timestamp;pressure;altitude;pressure_sealevel;temperature;humidity
56689;BME280;42565;53.342;-1.534;2023-05-02T00:01:24;99780.72;;;13.08;52.00
56689;BME280;42565;53.342;-1.534;2023-05-02T00:03:51;99785.09;;;13.32;52.00
56689;BME280;42565;53.342;-1.534;2023-05-02T00:06:18;99784.24;;;13.31;51.49
56689;BME280;42565;53.342;-1.534;2023-05-02T00:08:45;99784.20;;;13.05;52.05
56689;BME280;42565;53.342;-1.534;2023-05-02T00:11:17;99789.27;;;13.19;51.86
56689;BME280;42565;53.342;-1.534;2023-05-02T00:13:52;99794.34;;;13.34;51.37
56689;BME280;42565;53.342;-1.534;2023-05-02T00:16:19;99794.53;;;13.76;51.45
56689;BME280;42565;53.342;-1.534;2023-05-02T00:18:46;99800.82;;;13.60;51.03
56689;BME280;42565;53.342;-1.534;2023-05-02T00:21:17;99799.69;;;13.32;51.50
56689;BME280;42565;53.342;-1.534;2023-05-02T00:23:44;99796.41;;;13.05;52.31
56689;BME280;42565;53.342;-1.534;2023-05-02T00:26:11;99796.30;;;12.76;53.11
56689;BME280;42565;53.342;-1.534;2023-05-02T00:28:48;99801.99;;;13.32;51.77
56689;BME280;42565;53.342;-1.534;2023-05-02T00:31:15;99802.18;;;13.47;52.34
56689;BME280;42565;53.342;-1.534;2023-05-02T00:33:42;99807.29;;;13.33;52.41
56689;BME280;42565;53.342;-1.534;2023-05-02T00:36:13;99808.73;;;13.20;52.94
56689;BME280;42565;53.342;-1.534;2023-05-02T00:38:40;99805.70;;;13.53;52.52
56689;BME280;42565;53.342;-1.534;2023-05-02T00:41:08;99802.09;;;13.53;52.30
56689;BME280;42565;53.342;-1.534;2023-05-02T00:43:35;99801.03;;;13.29;53.59
56689;BME280;42565;53.342;-1.534;2023-05-02T00:46:03;99805.59;;;13.39;53.47
56689;BME280;42565;53.342;-1.534;2023-05-02T00:48:30;99805.62;;;13.24;52.73
56689;BME280;42565;53.342;-1.534;2023-05-02T00:50:57;99807.26;;;13.24;53.26
56689;BME280;42565;53.342;-1.534;2023-05-02T00:53:25;99808.71;;;13.00;52.76
56689;BME280;42565;53.342;-1.534;2023-05-02T00:55:52;99809.78;;;12.83;53.90
56689;BME280;42565;53.342;-1.534;2023-05-02T00:58:20;99813.06;;;12.78;54.47
56689;BME280;42565;53.342;-1.534;2023-05-02T01:01:10;99813.74;;;13.31;53.48
56689;BME280;42565;53.342;-1.534;2023-05-02T01:03:49;99814.18;;;12.96;54.50
56689;BME280;42565;53.342;-1.534;2023-05-02T01:06:27;99812.68;;;12.81;54.08
56689;BME280;42565;53.342;-1.534;2023-05-02T01:09:05;99814.40;;;13.16;53.97
56689;BME280;42565;53.342;-1.534;2023-05-02T01:11:43;99819.93;;;12.83;54.12
56689;BME280;42565;53.342;-1.534;2023-05-02T01:14:14;99817.29;;;12.61;55.24
56689;BME280;42565;53.342;-1.534;2023-05-02T01:16:42;99816.65;;;12.87;54.74
56689;BME280;42565;53.342;-1.534;2023-05-02T01:19:21;99819.59;;;12.78;55.41
56689;BME280;42565;53.342;-1.534;2023-05-02T01:21:51;99819.99;;;12.83;55.07
56689;BME280;42565;53.342;-1.534;2023-05-02T01:24:24;99817.95;;;11.75;57.62
56689;BME280;42565;53.342;-1.534;2023-05-02T01:27:00;99826.13;;;10.27;61.33
56689;BME280;42565;53.342;-1.534;2023-05-02T01:29:32;99828.14;;;10.40;61.14
56689;BME280;42565;53.342;-1.534;2023-05-02T01:32:01;99824.70;;;11.04;59.38
56689;BME280;42565;53.342;-1.534;2023-05-02T01:34:29;99825.09;;;10.82;58.59
56689;BME280;42565;53.342;-1.534;2023-05-02T01:36:58;99824.57;;;11.17;58.04
56689;BME280;42565;53.342;-1.534;2023-05-02T01:39:27;99827.70;;;11.19;57.04
56689;BME280;42565;53.342;-1.534;2023-05-02T01:42:04;99827.57;;;10.77;58.23
56689;BME280;42565;53.342;-1.534;2023-05-02T01:44:37;99830.65;;;9.46;62.57
56689;BME280;42565;53.342;-1.534;2023-05-02T01:47:16;99834.49;;;10.07;61.46
56689;BME280;42565;53.342;-1.534;2023-05-02T01:49:46;99838.67;;;10.32;60.09
56689;BME280;42565;53.342;-1.534;2023-05-02T01:52:14;99836.59;;;10.58;59.34
56689;BME280;42565;53.342;-1.534;2023-05-02T01:54:43;99832.79;;;10.88;58.02
56689;BME280;42565;53.342;-1.534;2023-05-02T01:57:10;99835.54;;;9.21;62.26
56689;BME280;42565;53.342;-1.534;2023-05-02T01:59:39;99836.52;;;10.36;60.05
56689;BME280;42565;53.342;-1.534;2023-05-02T02:02:08;99835.84;;;10.63;59.47
56689;BME280;42565;53.342;-1.534;2023-05-02T02:04:37;99835.48;;;10.89;58.20
56689;BME280;42565;53.342;-1.534;2023-05-02T02:07:07;99834.29;;;11.07;57.68
56689;BME280;42565;53.342;-1.534;2023-05-02T02:09:36;99840.27;;;10.21;59.72
56689;BME280;42565;53.342;-1.534;2023-05-02T02:12:06;99841.08;;;10.79;59.89
56689;BME280;42565;53.342;-1.534;2023-05-02T02:14:38;99844.88;;;10.65;59.17
56689;BME280;42565;53.342;-1.534;2023-05-02T02:17:11;99843.32;;;11.07;58.03
56689;BME280;42565;53.342;-1.534;2023-05-02T02:19:40;99843.72;;;11.37;57.42
56689;BME280;42565;53.342;-1.534;2023-05-02T02:22:07;99848.06;;;11.43;57.43
56689;BME280;42565;53.342;-1.534;2023-05-02T02:24:36;99849.80;;;11.32;57.56
56689;BME280;42565;53.342;-1.534;2023-05-02T02:27:05;99855.04;;;11.28;58.27
56689;BME280;42565;53.342;-1.534;2023-05-02T02:29:32;99861.44;;;11.20;57.49
56689;BME280;42565;53.342;-1.534;2023-05-02T02:31:59;99864.14;;;12.15;56.33
56689;BME280;42565;53.342;-1.534;2023-05-02T02:34:26;99869.82;;;11.58;57.21
56689;BME280;42565;53.342;-1.534;2023-05-02T02:36:56;99868.50;;;11.64;57.18
56689;BME280;42565;53.342;-1.534;2023-05-02T02:39:38;99870.14;;;10.95;57.23
56689;BME280;42565;53.342;-1.534;2023-05-02T02:42:14;99872.01;;;11.35;57.17
56689;BME280;42565;53.342;-1.534;2023-05-02T02:44:53;99872.16;;;11.16;56.47
56689;BME280;42565;53.342;-1.534;2023-05-02T02:47:25;99874.27;;;11.54;56.27
56689;BME280;42565;53.342;-1.534;2023-05-02T02:50:05;99874.06;;;11.45;57.20
56689;BME280;42565;53.342;-1.534;2023-05-02T02:52:42;99877.22;;;11.13;57.07
56689;BME280;42565;53.342;-1.534;2023-05-02T02:55:25;99876.36;;;11.00;56.76
56689;BME280;42565;53.342;-1.534;2023-05-02T02:57:59;99876.40;;;10.96;56.49
56689;BME280;42565;53.342;-1.534;2023-05-02T03:00:28;99876.99;;;10.06;57.46
56689;BME280;42565;53.342;-1.534;2023-05-02T03:02:57;99877.57;;;10.78;56.93
56689;BME280;42565;53.342;-1.534;2023-05-02T03:05:25;99876.61;;;10.92;56.76
56689;BME280;42565;53.342;-1.534;2023-05-02T03:07:52;99877.10;;;11.43;56.23
56689;BME280;42565;53.342;-1.534;2023-05-02T03:10:21;99875.92;;;11.52;54.78
56689;BME280;42565;53.342;-1.534;2023-05-02T03:12:48;99875.71;;;11.28;55.02
56689;BME280;42565;53.342;-1.534;2023-05-02T03:15:29;99877.45;;;11.63;54.60
56689;BME280;42565;53.342;-1.534;2023-05-02T03:18:02;99881.69;;;11.44;55.44
56689;BME280;42565;53.342;-1.534;2023-05-02T03:20:29;99884.45;;;11.06;55.99
56689;BME280;42565;53.342;-1.534;2023-05-02T03:22:56;99886.44;;;11.83;54.74
56689;BME280;42565;53.342;-1.534;2023-05-02T03:25:24;99888.30;;;11.65;54.28
56689;BME280;42565;53.342;-1.534;2023-05-02T03:27:51;99884.33;;;11.77;54.97
56689;BME280;42565;53.342;-1.534;2023-05-02T03:30:19;99883.69;;;11.11;55.91
56689;BME280;42565;53.342;-1.534;2023-05-02T03:32:45;99888.59;;;11.23;56.31
56689;BME280;42565;53.342;-1.534;2023-05-02T03:35:12;99887.68;;;11.39;55.72
56689;BME280;42565;53.342;-1.534;2023-05-02T03:37:39;99888.34;;;11.38;54.83
56689;BME280;42565;53.342;-1.534;2023-05-02T03:40:07;99890.34;;;11.60;55.17
56689;BME280;42565;53.342;-1.534;2023-05-02T03:42:35;99892.93;;;11.28;56.09
56689;BME280;42565;53.342;-1.534;2023-05-02T03:45:02;99893.51;;;11.28;55.98
56689;BME280;42565;53.342;-1.534;2023-05-02T03:47:29;99895.52;;;10.40;57.35
56689;BME280;42565;53.342;-1.534;2023-05-02T03:49:56;99893.03;;;11.47;56.28
56689;BME280;42565;53.342;-1.534;2023-05-02T03:52:23;99904.20;;;11.19;56.60
56689;BME280;42565;53.342;-1.534;2023-05-02T03:54:50;99907.69;;;10.93;57.31
56689;BME280;42565;53.342;-1.534;2023-05-02T03:57:17;99911.54;;;11.28;57.08
56689;BME280;42565;53.342;-1.534;2023-05-02T03:59:44;99911.91;;;11.08;56.76
56689;BME280;42565;53.342;-1.534;2023-05-02T04:02:11;99915.54;;;11.34;56.63
56689;BME280;42565;53.342;-1.534;2023-05-02T04:04:39;99914.24;;;11.80;55.78
56689;BME280;42565;53.342;-1.534;2023-05-02T04:07:06;99910.31;;;11.50;56.24
56689;BME280;42565;53.342;-1.534;2023-05-02T04:09:33;99917.36;;;11.38;56.50
56689;BME280;42565;53.342;-1.534;2023-05-02T04:12:01;99916.50;;;11.72;55.36
56689;BME280;42565;53.342;-1.534;2023-05-02T04:14:27;99918.08;;;10.81;56.12
56689;BME280;42565;53.342;-1.534;2023-05-02T04:16:54;99921.44;;;10.87;57.85
56689;BME280;42565;53.342;-1.534;2023-05-02T04:19:21;99913.95;;;11.24;56.96
56689;BME280;42565;53.342;-1.534;2023-05-02T04:21:48;99905.37;;;11.54;56.45
56689;BME280;42565;53.342;-1.534;2023-05-02T04:24:14;99908.14;;;11.78;55.22
56689;BME280;42565;53.342;-1.534;2023-05-02T04:26:41;99912.33;;;10.89;57.06
56689;BME280;42565;53.342;-1.534;2023-05-02T04:29:08;99917.69;;;10.99;57.58
56689;BME280;42565;53.342;-1.534;2023-05-02T04:31:35;99918.69;;;10.47;58.26
56689;BME280;42565;53.342;-1.534;2023-05-02T04:34:02;99918.52;;;10.26;59.78
56689;BME280;42565;53.342;-1.534;2023-05-02T04:36:29;99926.12;;;10.76;58.05
56689;BME280;42565;53.342;-1.534;2023-05-02T04:38:56;99921.82;;;11.07;57.21
56689;BME280;42565;53.342;-1.534;2023-05-02T04:41:23;99926.17;;;10.82;58.34
56689;BME280;42565;53.342;-1.534;2023-05-02T04:43:50;99925.08;;;10.27;59.45
56689;BME280;42565;53.342;-1.534;2023-05-02T04:46:17;99930.30;;;10.85;59.17
56689;BME280;42565;53.342;-1.534;2023-05-02T04:48:45;99932.23;;;11.09;58.45
56689;BME280;42565;53.342;-1.534;2023-05-02T04:51:11;99932.20;;;10.79;58.37
56689;BME280;42565;53.342;-1.534;2023-05-02T04:53:39;99932.86;;;10.18;60.08
56689;BME280;42565;53.342;-1.534;2023-05-02T04:56:06;99933.69;;;10.80;60.09
56689;BME280;42565;53.342;-1.534;2023-05-02T04:58:33;99930.53;;;10.11;60.13
56689;BME280;42565;53.342;-1.534;2023-05-02T05:01:00;99934.35;;;10.43;60.10
56689;BME280;42565;53.342;-1.534;2023-05-02T05:03:27;99936.58;;;10.07;59.81
56689;BME280;42565;53.342;-1.534;2023-05-02T05:05:55;99934.70;;;10.43;60.32
56689;BME280;42565;53.342;-1.534;2023-05-02T05:08:22;99938.80;;;10.46;60.06
56689;BME280;42565;53.342;-1.534;2023-05-02T05:10:50;99943.04;;;9.92;61.40
56689;BME280;42565;53.342;-1.534;2023-05-02T05:13:18;99940.62;;;10.56;59.62
56689;BME280;42565;53.342;-1.534;2023-05-02T05:15:46;99947.50;;;10.19;60.98
56689;BME280;42565;53.342;-1.534;2023-05-02T05:18:13;99950.29;;;10.01;61.35
56689;BME280;42565;53.342;-1.534;2023-05-02T05:20:40;99951.35;;;10.45;60.14
56689;BME280;42565;53.342;-1.534;2023-05-02T05:23:07;99956.15;;;10.58;59.31
56689;BME280;42565;53.342;-1.534;2023-05-02T05:25:34;99957.96;;;9.93;60.67
56689;BME280;42565;53.342;-1.534;2023-05-02T05:28:01;99955.98;;;9.81;61.18
56689;BME280;42565;53.342;-1.534;2023-05-02T05:30:29;99952.53;;;9.85;61.26
56689;BME280;42565;53.342;-1.534;2023-05-02T05:32:56;99953.94;;;9.80;61.70
56689;BME280;42565;53.342;-1.534;2023-05-02T05:35:24;99954.02;;;10.51;60.15
56689;BME280;42565;53.342;-1.534;2023-05-02T05:37:52;99949.64;;;10.41;59.97
56689;BME280;42565;53.342;-1.534;2023-05-02T05:40:19;99948.12;;;10.33;59.79
56689;BME280;42565;53.342;-1.534;2023-05-02T05:42:46;99949.69;;;10.50;59.53
56689;BME280;42565;53.342;-1.534;2023-05-02T05:45:14;99951.03;;;9.73;61.41
56689;BME280;42565;53.342;-1.534;2023-05-02T05:47:41;99955.71;;;10.69;60.08
56689;BME280;42565;53.342;-1.534;2023-05-02T05:50:09;99964.61;;;10.42;59.80
56689;BME280;42565;53.342;-1.534;2023-05-02T05:52:36;99967.04;;;10.53;58.20
56689;BME280;42565;53.342;-1.534;2023-05-02T05:55:04;99965.36;;;10.56;59.33
56689;BME280;42565;53.342;-1.534;2023-05-02T05:57:31;99974.65;;;10.81;57.93
56689;BME280;42565;53.342;-1.534;2023-05-02T05:59:58;99979.65;;;10.85;58.50
56689;BME280;42565;53.342;-1.534;2023-05-02T06:02:25;99982.81;;;9.89;59.23
56689;BME280;42565;53.342;-1.534;2023-05-02T06:04:52;99985.14;;;11.05;57.61
56689;BME280;42565;53.342;-1.534;2023-05-02T06:07:19;99982.72;;;11.34;56.24
56689;BME280;42565;53.342;-1.534;2023-05-02T06:09:46;99988.52;;;10.46;58.08
56689;BME280;42565;53.342;-1.534;2023-05-02T06:12:13;99995.06;;;11.00;56.53
56689;BME280;42565;53.342;-1.534;2023-05-02T06:14:39;100002.18;;;11.05;56.09
56689;BME280;42565;53.342;-1.534;2023-05-02T06:17:06;100006.82;;;11.01;56.32
56689;BME280;42565;53.342;-1.534;2023-05-02T06:19:34;100007.48;;;10.36;57.52
56689;BME280;42565;53.342;-1.534;2023-05-02T06:22:00;100004.37;;;10.40;57.96
56689;BME280;42565;53.342;-1.534;2023-05-02T06:24:27;100007.64;;;9.91;58.32
56689;BME280;42565;53.342;-1.534;2023-05-02T06:26:54;100012.86;;;10.43;58.09
56689;BME280;42565;53.342;-1.534;2023-05-02T06:29:21;100014.26;;;10.59;58.29
56689;BME280;42565;53.342;-1.534;2023-05-02T06:31:47;100009.08;;;10.45;58.10
56689;BME280;42565;53.342;-1.534;2023-05-02T06:34:26;100014.16;;;10.62;57.89
56689;BME280;42565;53.342;-1.534;2023-05-02T06:36:54;100017.04;;;10.66;58.32
56689;BME280;42565;53.342;-1.534;2023-05-02T06:39:22;100012.81;;;10.21;58.70
56689;BME280;42565;53.342;-1.534;2023-05-02T06:41:49;100011.65;;;10.50;59.12
56689;BME280;42565;53.342;-1.534;2023-05-02T06:44:16;100012.22;;;11.26;56.81
56689;BME280;42565;53.342;-1.534;2023-05-02T06:46:43;100015.94;;;10.12;58.87
56689;BME280;42565;53.342;-1.534;2023-05-02T06:49:10;100019.82;;;10.83;57.66
56689;BME280;42565;53.342;-1.534;2023-05-02T06:51:37;100017.73;;;10.61;56.60
56689;BME280;42565;53.342;-1.534;2023-05-02T06:54:04;100015.02;;;10.12;57.57
56689;BME280;42565;53.342;-1.534;2023-05-02T06:56:31;100022.13;;;9.47;58.49
56689;BME280;42565;53.342;-1.534;2023-05-02T06:58:58;100024.31;;;9.67;60.84
56689;BME280;42565;53.342;-1.534;2023-05-02T07:01:25;100030.11;;;10.32;60.04
56689;BME280;42565;53.342;-1.534;2023-05-02T07:03:52;100026.95;;;10.15;58.57
56689;BME280;42565;53.342;-1.534;2023-05-02T07:06:20;100033.17;;;9.87;58.94
56689;BME280;42565;53.342;-1.534;2023-05-02T07:08:47;100036.70;;;9.50;57.28
56689;BME280;42565;53.342;-1.534;2023-05-02T07:11:14;100038.40;;;9.91;57.74
56689;BME280;42565;53.342;-1.534;2023-05-02T07:13:42;100039.07;;;10.05;58.18
56689;BME280;42565;53.342;-1.534;2023-05-02T07:16:09;100040.15;;;10.15;58.76
56689;BME280;42565;53.342;-1.534;2023-05-02T07:18:36;100039.94;;;8.35;62.43
56689;BME280;42565;53.342;-1.534;2023-05-02T07:21:03;100040.62;;;9.16;61.51
56689;BME280;42565;53.342;-1.534;2023-05-02T07:23:30;100040.20;;;9.48;58.25
56689;BME280;42565;53.342;-1.534;2023-05-02T07:25:57;100040.12;;;10.06;55.83
56689;BME280;42565;53.342;-1.534;2023-05-02T07:28:24;100046.48;;;10.54;55.55
56689;BME280;42565;53.342;-1.534;2023-05-02T07:30:51;100048.70;;;10.50;55.43
56689;BME280;42565;53.342;-1.534;2023-05-02T07:33:18;100044.06;;;10.95;55.38
56689;BME280;42565;53.342;-1.534;2023-05-02T07:35:46;100045.99;;;10.46;57.05
56689;BME280;42565;53.342;-1.534;2023-05-02T07:38:12;100048.72;;;10.93;56.68
56689;BME280;42565;53.342;-1.534;2023-05-02T07:40:39;100051.16;;;10.20;57.51
56689;BME280;42565;53.342;-1.534;2023-05-02T07:43:06;100057.34;;;10.78;55.92
56689;BME280;42565;53.342;-1.534;2023-05-02T07:45:32;100057.27;;;10.90;55.06
56689;BME280;42565;53.342;-1.534;2023-05-02T07:48:00;100059.05;;;10.76;55.16
56689;BME280;42565;53.342;-1.534;2023-05-02T07:50:27;100050.31;;;10.91;54.71
56689;BME280;42565;53.342;-1.534;2023-05-02T07:52:54;100053.31;;;10.53;55.47
56689;BME280;42565;53.342;-1.534;2023-05-02T07:55:21;100052.35;;;10.76;56.37
56689;BME280;42565;53.342;-1.534;2023-05-02T07:57:49;100048.91;;;10.72;57.35
56689;BME280;42565;53.342;-1.534;2023-05-02T08:00:16;100053.22;;;10.51;56.40
56689;BME280;42565;53.342;-1.534;2023-05-02T08:02:43;100053.28;;;11.00;56.76
56689;BME280;42565;53.342;-1.534;2023-05-02T08:05:10;100058.00;;;10.57;57.78
56689;BME280;42565;53.342;-1.534;2023-05-02T08:07:37;100063.18;;;10.22;57.84
56689;BME280;42565;53.342;-1.534;2023-05-02T08:10:05;100066.70;;;10.05;58.97
56689;BME280;42565;53.342;-1.534;2023-05-02T08:12:37;100063.21;;;9.36;60.46
56689;BME280;42565;53.342;-1.534;2023-05-02T08:15:06;100063.84;;;9.27;59.95
56689;BME280;42565;53.342;-1.534;2023-05-02T08:17:34;100064.12;;;9.04;60.73
56689;BME280;42565;53.342;-1.534;2023-05-02T08:20:00;100067.97;;;9.20;59.85
56689;BME280;42565;53.342;-1.534;2023-05-02T08:22:27;100067.90;;;9.28;59.44
56689;BME280;42565;53.342;-1.534;2023-05-02T08:24:54;100071.51;;;9.84;57.59
56689;BME280;42565;53.342;-1.534;2023-05-02T08:27:20;100074.74;;;9.42;58.70
56689;BME280;42565;53.342;-1.534;2023-05-02T08:29:47;100077.63;;;9.35;58.06
56689;BME280;42565;53.342;-1.534;2023-05-02T08:32:14;100076.90;;;9.31;59.60
56689;BME280;42565;53.342;-1.534;2023-05-02T08:34:41;100078.77;;;9.01;58.55
56689;BME280;42565;53.342;-1.534;2023-05-02T08:37:07;100077.52;;;9.71;57.92
56689;BME280;42565;53.342;-1.534;2023-05-02T08:39:35;100073.56;;;9.35;56.86
56689;BME280;42565;53.342;-1.534;2023-05-02T08:42:05;100070.61;;;10.31;55.69
56689;BME280;42565;53.342;-1.534;2023-05-02T08:44:32;100071.29;;;10.19;55.85
56689;BME280;42565;53.342;-1.534;2023-05-02T08:46:59;100062.91;;;10.36;55.63
56689;BME280;42565;53.342;-1.534;2023-05-02T08:49:28;100063.49;;;9.86;55.07
56689;BME280;42565;53.342;-1.534;2023-05-02T08:51:59;100063.69;;;10.77;54.20
56689;BME280;42565;53.342;-1.534;2023-05-02T08:54:26;100067.82;;;10.69;54.19
56689;BME280;42565;53.342;-1.534;2023-05-02T08:56:54;100068.71;;;10.34;53.92
56689;BME280;42565;53.342;-1.534;2023-05-02T08:59:21;100068.48;;;10.66;54.17
56689;BME280;42565;53.342;-1.534;2023-05-02T09:01:51;100068.63;;;11.47;53.22
56689;BME280;42565;53.342;-1.534;2023-05-02T09:04:23;100076.76;;;11.37;52.15
56689;BME280;42565;53.342;-1.534;2023-05-02T09:06:54;100078.69;;;11.01;50.81
56689;BME280;42565;53.342;-1.534;2023-05-02T09:09:21;100074.15;;;10.84;52.05
56689;BME280;42565;53.342;-1.534;2023-05-02T09:11:49;100072.96;;;10.39;53.41
56689;BME280;42565;53.342;-1.534;2023-05-02T09:14:17;100078.07;;;10.51;53.04
56689;BME280;42565;53.342;-1.534;2023-05-02T09:16:44;100081.03;;;11.02;51.63
56689;BME280;42565;53.342;-1.534;2023-05-02T09:19:23;100078.37;;;9.63;54.23
56689;BME280;42565;53.342;-1.534;2023-05-02T09:21:51;100078.58;;;10.10;54.33
56689;BME280;42565;53.342;-1.534;2023-05-02T09:24:20;100083.92;;;9.75;54.20
56689;BME280;42565;53.342;-1.534;2023-05-02T09:26:57;100075.84;;;10.25;54.53
56689;BME280;42565;53.342;-1.534;2023-05-02T09:29:26;100083.53;;;10.77;52.83
56689;BME280;42565;53.342;-1.534;2023-05-02T09:31:54;100082.36;;;10.84;52.35
56689;BME280;42565;53.342;-1.534;2023-05-02T09:34:20;100075.91;;;11.07;51.70
56689;BME280;42565;53.342;-1.534;2023-05-02T09:36:49;100081.85;;;11.21;51.71
56689;BME280;42565;53.342;-1.534;2023-05-02T09:39:18;100084.98;;;10.70;52.89
56689;BME280;42565;53.342;-1.534;2023-05-02T09:41:47;100081.48;;;11.01;52.10
56689;BME280;42565;53.342;-1.534;2023-05-02T09:44:15;100084.89;;;11.03;53.07
56689;BME280;42565;53.342;-1.534;2023-05-02T09:46:44;100091.95;;;10.51;53.35
56689;BME280;42565;53.342;-1.534;2023-05-02T09:49:11;100085.79;;;10.38;53.21
56689;BME280;42565;53.342;-1.534;2023-05-02T09:51:39;100083.76;;;11.07;54.00
56689;BME280;42565;53.342;-1.534;2023-05-02T09:54:06;100084.57;;;11.04;51.19
56689;BME280;42565;53.342;-1.534;2023-05-02T09:56:51;100084.91;;;11.94;50.42
56689;BME280;42565;53.342;-1.534;2023-05-02T09:59:19;100096.98;;;12.32;49.05
56689;BME280;42565;53.342;-1.534;2023-05-02T10:01:54;100097.49;;;11.80;50.25
56689;BME280;42565;53.342;-1.534;2023-05-02T10:04:21;100097.07;;;11.71;50.76
56689;BME280;42565;53.342;-1.534;2023-05-02T10:06:51;100091.38;;;11.21;51.43
56689;BME280;42565;53.342;-1.534;2023-05-02T10:09:19;100102.80;;;11.03;52.47
56689;BME280;42565;53.342;-1.534;2023-05-02T10:11:50;100103.44;;;11.30;51.04
56689;BME280;42565;53.342;-1.534;2023-05-02T10:14:19;100108.41;;;11.40;52.21
56689;BME280;42565;53.342;-1.534;2023-05-02T10:16:54;100113.25;;;11.04;51.27
56689;BME280;42565;53.342;-1.534;2023-05-02T10:19:25;100116.10;;;11.82;50.72
56689;BME280;42565;53.342;-1.534;2023-05-02T10:21:53;100121.65;;;12.23;49.77
56689;BME280;42565;53.342;-1.534;2023-05-02T10:24:22;100118.79;;;11.33;51.92
56689;BME280;42565;53.342;-1.534;2023-05-02T10:26:50;100118.39;;;11.62;51.46
56689;BME280;42565;53.342;-1.534;2023-05-02T10:29:18;100120.50;;;11.81;53.22
56689;BME280;42565;53.342;-1.534;2023-05-02T10:31:45;100121.34;;;11.01;53.41
56689;BME280;42565;53.342;-1.534;2023-05-02T10:34:14;100127.75;;;11.03;53.75
56689;BME280;42565;53.342;-1.534;2023-05-02T10:36:42;100129.23;;;11.51;52.86
56689;BME280;42565;53.342;-1.534;2023-05-02T10:39:08;100133.20;;;11.74;51.34
56689;BME280;42565;53.342;-1.534;2023-05-02T10:41:37;100137.46;;;11.66;51.47
56689;BME280;42565;53.342;-1.534;2023-05-02T10:44:06;100139.48;;;12.55;50.49
56689;BME280;42565;53.342;-1.534;2023-05-02T10:46:34;100140.29;;;11.42;52.06
56689;BME280;42565;53.342;-1.534;2023-05-02T10:49:03;100142.13;;;12.17;51.45
56689;BME280;42565;53.342;-1.534;2023-05-02T10:51:31;100140.15;;;12.21;52.87
56689;BME280;42565;53.342;-1.534;2023-05-02T10:54:31;100142.31;;;12.30;49.93
56689;BME280;42565;53.342;-1.534;2023-05-02T10:57:02;100139.90;;;11.61;50.54
56689;BME280;42565;53.342;-1.534;2023-05-02T10:59:31;100141.77;;;11.77;49.87
56689;BME280;42565;53.342;-1.534;2023-05-02T11:01:58;100140.02;;;12.30;50.29
56689;BME280;42565;53.342;-1.534;2023-05-02T11:04:57;100134.20;;;12.43;49.44
56689;BME280;42565;53.342;-1.534;2023-05-02T11:07:25;100126.85;;;12.74;48.17
56689;BME280;42565;53.342;-1.534;2023-05-02T11:09:52;100121.29;;;13.04;47.56
56689;BME280;42565;53.342;-1.534;2023-05-02T11:12:54;100116.98;;;12.40;48.64
56689;BME280;42565;53.342;-1.534;2023-05-02T11:15:54;100113.23;;;12.91;50.26
56689;BME280;42565;53.342;-1.534;2023-05-02T11:18:22;100117.68;;;13.32;47.89
56689;BME280;42565;53.342;-1.534;2023-05-02T11:20:49;100107.47;;;12.89;47.89
56689;BME280;42565;53.342;-1.534;2023-05-02T11:23:22;100111.30;;;13.35;47.60
56689;BME280;42565;53.342;-1.534;2023-05-02T11:25:50;100116.52;;;13.18;48.54
56689;BME280;42565;53.342;-1.534;2023-05-02T11:28:50;100127.10;;;12.86;49.74
56689;BME280;42565;53.342;-1.534;2023-05-02T11:32:23;100135.56;;;12.90;48.78
56689;BME280;42565;53.342;-1.534;2023-05-02T11:34:51;100132.11;;;13.16;48.11
56689;BME280;42565;53.342;-1.534;2023-05-02T11:37:19;100132.02;;;13.51;48.76
56689;BME280;42565;53.342;-1.534;2023-05-02T11:39:46;100133.69;;;14.02;48.71
56689;BME280;42565;53.342;-1.534;2023-05-02T11:42:27;100135.73;;;13.83;49.38
56689;BME280;42565;53.342;-1.534;2023-05-02T11:44:55;100137.05;;;14.11;46.84
56689;BME280;42565;53.342;-1.534;2023-05-02T11:47:22;100149.28;;;13.11;48.49
56689;BME280;42565;53.342;-1.534;2023-05-02T11:49:49;100147.61;;;12.47;51.68
56689;BME280;42565;53.342;-1.534;2023-05-02T11:52:16;100144.18;;;12.59;50.59
56689;BME280;42565;53.342;-1.534;2023-05-02T11:54:43;100135.29;;;12.80;50.18
56689;BME280;42565;53.342;-1.534;2023-05-02T11:57:11;100135.72;;;12.61;50.49
56689;BME280;42565;53.342;-1.534;2023-05-02T11:59:55;100137.34;;;12.98;49.08
56689;BME280;42565;53.342;-1.534;2023-05-02T12:02:34;100134.92;;;12.63;50.82
56689;BME280;42565;53.342;-1.534;2023-05-02T12:05:02;100133.72;;;13.24;50.94
56689;BME280;42565;53.342;-1.534;2023-05-02T12:07:37;100138.58;;;12.67;49.58
56689;BME280;42565;53.342;-1.534;2023-05-02T12:10:06;100136.53;;;12.97;50.38
56689;BME280;42565;53.342;-1.534;2023-05-02T12:12:34;100135.91;;;12.90;49.44
56689;BME280;42565;53.342;-1.534;2023-05-02T12:15:03;100142.65;;;13.00;49.45
56689;BME280;42565;53.342;-1.534;2023-05-02T12:17:31;100143.84;;;12.75;49.84
56689;BME280;42565;53.342;-1.534;2023-05-02T12:19:59;100138.83;;;13.14;49.03
56689;BME280;42565;53.342;-1.534;2023-05-02T12:22:27;100140.82;;;13.07;50.66
56689;BME280;42565;53.342;-1.534;2023-05-02T12:24:54;100134.21;;;13.30;48.61
56689;BME280;42565;53.342;-1.534;2023-05-02T12:27:22;100138.42;;;13.60;47.89
56689;BME280;42565;53.342;-1.534;2023-05-02T12:29:50;100134.48;;;13.50;46.62
56689;BME280;42565;53.342;-1.534;2023-05-02T12:32:27;100129.34;;;14.22;44.55
56689;BME280;42565;53.342;-1.534;2023-05-02T12:34:55;100124.53;;;14.17;46.76
56689;BME280;42565;53.342;-1.534;2023-05-02T12:37:23;100125.57;;;13.79;46.89
56689;BME280;42565;53.342;-1.534;2023-05-02T12:39:51;100129.23;;;13.89;45.68
56689;BME280;42565;53.342;-1.534;2023-05-02T12:42:20;100127.02;;;14.54;46.23
56689;BME280;42565;53.342;-1.534;2023-05-02T12:44:49;100131.28;;;14.04;46.99
56689;BME280;42565;53.342;-1.534;2023-05-02T12:47:16;100129.69;;;13.64;46.17
56689;BME280;42565;53.342;-1.534;2023-05-02T12:49:49;100125.85;;;13.94;46.88
56689;BME280;42565;53.342;-1.534;2023-05-02T12:52:17;100118.57;;;14.17;47.94
56689;BME280;42565;53.342;-1.534;2023-05-02T12:54:45;100123.66;;;13.63;46.96
56689;BME280;42565;53.342;-1.534;2023-05-02T12:57:22;100128.73;;;13.98;46.98